createdAt,value
2022-09-28T00:01:19.281Z,98621.25
2022-09-28T00:03:45.579Z,98619.25
2022-09-28T00:06:12.187Z,98617.38
2022-09-28T00:08:38.426Z,98618.41
2022-09-28T00:11:04.687Z,98615.34
2022-09-28T00:13:33.140Z,98611.22
2022-09-28T00:15:59.627Z,98620.66
2022-09-28T00:18:26.480Z,98612.28
2022-09-28T00:20:52.764Z,98606.75
2022-09-28T00:23:19.018Z,98610.13
2022-09-28T00:25:45.288Z,98601.78
2022-09-28T00:28:11.539Z,98604.03
2022-09-28T00:30:37.898Z,98598.56
2022-09-28T00:33:04.154Z,98595.03
2022-09-28T00:35:30.968Z,98603.53
2022-09-28T00:37:57.219Z,98598.97
2022-09-28T00:40:23.489Z,98591.47
2022-09-28T00:42:49.771Z,98589.78
2022-09-28T00:45:16.024Z,98593.31
2022-09-28T00:47:42.290Z,98590.91
2022-09-28T00:50:08.554Z,98585.28
2022-09-28T00:52:34.810Z,98582.88
2022-09-28T00:55:01.229Z,98583.03
2022-09-28T00:57:27.483Z,98576.28
2022-09-28T00:59:53.762Z,98584.84
2022-09-28T01:02:20.132Z,98573.50
2022-09-28T01:04:46.447Z,98572.25
2022-09-28T01:07:12.707Z,98577.00
2022-09-28T01:09:39.001Z,98577.38
2022-09-28T01:12:05.256Z,98573.97
2022-09-28T01:14:31.665Z,98572.53
2022-09-28T01:16:58.780Z,98568.19
2022-09-28T01:19:24.967Z,98567.16
2022-09-28T01:21:51.416Z,98568.44
2022-09-28T01:24:17.683Z,98560.72
2022-09-28T01:26:44.018Z,98559.88
2022-09-28T01:29:10.341Z,98564.41
2022-09-28T01:31:36.989Z,98565.50
2022-09-28T01:34:03.299Z,98565.94
2022-09-28T01:36:29.546Z,98555.94
2022-09-28T01:38:55.797Z,98555.09
2022-09-28T01:41:22.058Z,98555.81
2022-09-28T01:43:48.309Z,98549.59
2022-09-28T01:46:14.727Z,98550.72
2022-09-28T01:48:41.008Z,98538.72
2022-09-28T01:51:07.268Z,98539.34
2022-09-28T01:53:33.528Z,98543.25
2022-09-28T01:55:59.789Z,98546.63
2022-09-28T01:58:26.039Z,98542.84
2022-09-28T02:00:52.528Z,98540.72
2022-09-28T02:03:18.834Z,98543.16
2022-09-28T02:05:45.091Z,98538.63
2022-09-28T02:08:11.335Z,98537.06
2022-09-28T02:10:37.632Z,98541.72
2022-09-28T02:13:04.674Z,98548.59
2022-09-28T02:15:30.982Z,98543.94
2022-09-28T02:17:57.250Z,98545.13
2022-09-28T02:20:23.839Z,98543.13
2022-09-28T02:22:50.104Z,98542.41
2022-09-28T02:25:16.374Z,98534.50
2022-09-28T02:27:42.691Z,98538.97
2022-09-28T02:30:08.963Z,98531.81
2022-09-28T02:32:35.204Z,98532.34
2022-09-28T02:35:01.464Z,98538.72
2022-09-28T02:37:27.714Z,98534.19
2022-09-28T02:39:54.034Z,98530.81
2022-09-28T02:42:20.303Z,98533.50
2022-09-28T02:44:46.557Z,98528.69
2022-09-28T02:47:12.823Z,98519.66
2022-09-28T02:49:39.244Z,98521.34
2022-09-28T02:52:05.519Z,98521.94
2022-09-28T02:54:31.758Z,98511.06
2022-09-28T02:56:58.003Z,98516.13
2022-09-28T02:59:24.274Z,98508.22
2022-09-28T03:01:50.564Z,98505.72
2022-09-28T03:04:16.853Z,98507.69
2022-09-28T03:06:43.127Z,98499.56
2022-09-28T03:09:09.389Z,98503.38
2022-09-28T03:11:35.663Z,98501.09
2022-09-28T03:14:01.925Z,98499.69
2022-09-28T03:16:29.024Z,98495.03
2022-09-28T03:18:55.234Z,98485.19
2022-09-28T03:21:21.491Z,98482.63
2022-09-28T03:23:47.943Z,98490.69
2022-09-28T03:26:14.471Z,98489.28
2022-09-28T03:28:40.724Z,98492.94
2022-09-28T03:31:07.075Z,98481.84
2022-09-28T03:33:33.383Z,98486.63
2022-09-28T03:35:59.626Z,98474.94
2022-09-28T03:38:25.870Z,98481.69
2022-09-28T03:40:52.182Z,98485.22
2022-09-28T03:43:18.476Z,98483.56
2022-09-28T03:45:44.778Z,98486.63
2022-09-28T03:48:11.068Z,98486.19
2022-09-28T03:50:37.323Z,98494.09
2022-09-28T03:53:03.592Z,98485.63
2022-09-28T03:55:29.950Z,98495.50
2022-09-28T03:57:56.187Z,98485.16
2022-09-28T04:00:22.979Z,98489.69
2022-09-28T04:02:49.438Z,98480.50
2022-09-28T04:05:15.697Z,98493.19
2022-09-28T04:07:42.053Z,98479.69
2022-09-28T04:10:08.315Z,98480.38
2022-09-28T04:12:34.571Z,98467.69
2022-09-28T04:15:00.826Z,98451.94
2022-09-28T04:17:27.080Z,98451.25
2022-09-28T04:19:53.341Z,98450.78
2022-09-28T04:22:19.588Z,98453.34
2022-09-28T04:24:46.468Z,98452.50
2022-09-28T04:27:31.627Z,98449.41
2022-09-28T04:29:57.883Z,98461.25
2022-09-28T04:32:24.133Z,98449.16
2022-09-28T04:34:51.304Z,98447.06
2022-09-28T04:37:17.486Z,98442.16
2022-09-28T04:39:47.564Z,98443.88
2022-09-28T04:42:14.578Z,98437.16
2022-09-28T04:44:40.830Z,98419.56
2022-09-28T04:47:07.079Z,98420.72
2022-09-28T04:49:35.379Z,98413.22
2022-09-28T04:52:01.676Z,98403.53
2022-09-28T04:54:27.968Z,98405.50
2022-09-28T04:56:55.325Z,98402.53
2022-09-28T04:59:21.566Z,98391.50
2022-09-28T05:01:48.367Z,98388.84
2022-09-28T05:04:14.662Z,98386.16
2022-09-28T05:06:40.924Z,98390.22
2022-09-28T05:09:07.230Z,98386.84
2022-09-28T05:11:33.488Z,98390.69
2022-09-28T05:13:59.882Z,98390.84
2022-09-28T05:16:27.022Z,98383.34
2022-09-28T05:18:53.232Z,98395.59
2022-09-28T05:21:20.063Z,98392.22
2022-09-28T05:23:46.327Z,98385.88
2022-09-28T05:26:12.571Z,98387.56
2022-09-28T05:28:38.839Z,98383.47
2022-09-28T05:31:05.152Z,98385.84
2022-09-28T05:33:31.386Z,98383.03
2022-09-28T05:36:01.042Z,98380.03
2022-09-28T05:38:28.319Z,98378.38
2022-09-28T05:40:54.703Z,98377.28
2022-09-28T05:43:21.021Z,98374.28
2022-09-28T05:45:50.428Z,98375.25
2022-09-28T05:48:20.710Z,98368.63
2022-09-28T05:50:46.949Z,98369.44
2022-09-28T05:53:13.246Z,98349.00
2022-09-28T05:55:39.903Z,98360.16
2022-09-28T05:58:06.244Z,98352.03
2022-09-28T06:00:32.484Z,98349.44
2022-09-28T06:02:58.776Z,98345.53
2022-09-28T06:05:25.067Z,98348.06
2022-09-28T06:07:51.314Z,98330.06
2022-09-28T06:10:17.580Z,98321.53
2022-09-28T06:12:44.819Z,98311.34
2022-09-28T06:15:11.093Z,98305.84
2022-09-28T06:17:37.338Z,98302.09
2022-09-28T06:20:03.732Z,98306.53
2022-09-28T06:22:29.999Z,98306.22
2022-09-28T06:24:56.250Z,98296.66
2022-09-28T06:27:22.530Z,98297.59
2022-09-28T06:29:48.796Z,98294.63
2022-09-28T06:32:15.055Z,98290.50
2022-09-28T06:34:41.996Z,98299.91
2022-09-28T06:37:08.253Z,98297.78
2022-09-28T06:39:34.499Z,98303.06
2022-09-28T06:42:03.178Z,98302.16
2022-09-28T06:44:29.437Z,98300.72
2022-09-28T06:46:58.477Z,98302.25
2022-09-28T06:49:27.688Z,98298.81
2022-09-28T06:51:53.934Z,98292.53
2022-09-28T06:54:20.394Z,98303.88
2022-09-28T06:56:46.648Z,98304.09
2022-09-28T06:59:12.915Z,98292.94
2022-09-28T07:01:39.218Z,98298.56
2022-09-28T07:04:05.515Z,98303.25
2022-09-28T07:06:31.788Z,98298.50
2022-09-28T07:09:11.510Z,98300.66
2022-09-28T07:11:46.551Z,98297.81
2022-09-28T07:14:24.882Z,98298.06
2022-09-28T07:17:12.278Z,98303.94
2022-09-28T07:19:39.735Z,98305.63
2022-09-28T07:22:05.992Z,98301.44
2022-09-28T07:24:32.234Z,98303.09
2022-09-28T07:26:58.482Z,98316.94
2022-09-28T07:29:25.759Z,98326.59
2022-09-28T07:31:52.002Z,98324.91
2022-09-28T07:34:18.654Z,98322.09
2022-09-28T07:36:45.002Z,98332.94
2022-09-28T07:39:12.107Z,98316.94
2022-09-28T07:41:39.608Z,98314.88
2022-09-28T07:44:06.085Z,98302.94
2022-09-28T07:46:32.482Z,98301.34
2022-09-28T07:48:58.732Z,98308.38
2022-09-28T07:51:28.135Z,98312.13
2022-09-28T07:53:54.378Z,98313.25
2022-09-28T07:56:20.625Z,98324.66
2022-09-28T07:58:46.876Z,98322.22
2022-09-28T08:01:16.703Z,98318.38
2022-09-28T08:03:46.217Z,98311.38
2022-09-28T08:06:12.719Z,98306.09
2022-09-28T08:08:43.683Z,98316.50
2022-09-28T08:11:10.450Z,98321.63
2022-09-28T08:13:37.198Z,98330.28
2022-09-28T08:16:03.452Z,98328.53
2022-09-28T08:18:29.712Z,98327.34
2022-09-28T08:21:14.362Z,98323.31
2022-09-28T08:23:40.627Z,98325.38
2022-09-28T08:26:06.887Z,98329.88
2022-09-28T08:28:33.142Z,98330.56
2022-09-28T08:30:59.392Z,98329.56
2022-09-28T08:33:25.854Z,98322.00
2022-09-28T08:35:52.097Z,98343.28
2022-09-28T08:38:18.404Z,98338.63
2022-09-28T08:40:44.815Z,98344.78
2022-09-28T08:43:11.270Z,98360.66
2022-09-28T08:45:37.542Z,98345.19
2022-09-28T08:48:22.460Z,98341.53
2022-09-28T08:50:48.709Z,98340.06
2022-09-28T08:53:14.958Z,98343.72
2022-09-28T08:55:41.230Z,98344.25
2022-09-28T08:58:07.493Z,98346.56
2022-09-28T09:00:34.150Z,98337.56
2022-09-28T09:03:00.441Z,98345.03
2022-09-28T09:05:26.742Z,98350.03
2022-09-28T09:07:52.995Z,98352.66
2022-09-28T09:10:19.253Z,98358.34
2022-09-28T09:12:45.556Z,98361.03
2022-09-28T09:15:11.836Z,98349.09
2022-09-28T09:17:38.090Z,98341.38
2022-09-28T09:20:04.355Z,98345.81
2022-09-28T09:22:30.611Z,98340.81
2022-09-28T09:24:56.965Z,98324.28
2022-09-28T09:27:23.222Z,98326.94
2022-09-28T09:29:50.132Z,98319.94
2022-09-28T09:32:16.378Z,98327.97
2022-09-28T09:34:42.658Z,98326.72
2022-09-28T09:37:08.907Z,98331.09
2022-09-28T09:39:35.193Z,98336.22
2022-09-28T09:42:01.448Z,98324.38
2022-09-28T09:44:27.705Z,98317.63
2022-09-28T09:46:54.086Z,98326.16
2022-09-28T09:49:20.532Z,98321.75
2022-09-28T09:51:46.825Z,98322.06
2022-09-28T09:54:13.525Z,98323.38
2022-09-28T09:56:39.871Z,98317.78
2022-09-28T09:59:06.738Z,98314.81
2022-09-28T10:01:33.070Z,98311.22
2022-09-28T10:03:59.370Z,98315.72
2022-09-28T10:06:26.399Z,98318.16
2022-09-28T10:08:53.804Z,98305.69
2022-09-28T10:11:20.087Z,98305.25
2022-09-28T10:13:46.644Z,98310.13
2022-09-28T10:16:12.947Z,98291.78
2022-09-28T10:18:39.243Z,98295.84
2022-09-28T10:21:05.539Z,98286.94
2022-09-28T10:23:33.778Z,98288.66
2022-09-28T10:26:00.514Z,98301.31
2022-09-28T10:28:26.776Z,98294.88
2022-09-28T10:30:53.168Z,98283.38
2022-09-28T10:33:19.489Z,98281.69
2022-09-28T10:35:47.759Z,98273.69
2022-09-28T10:38:14.013Z,98272.03
2022-09-28T10:40:40.354Z,98272.94
2022-09-28T10:43:06.658Z,98280.75
2022-09-28T10:45:32.918Z,98286.16
2022-09-28T10:48:00.785Z,98279.00
2022-09-28T10:50:27.040Z,98275.06
2022-09-28T10:52:53.291Z,98260.63
2022-09-28T10:55:19.545Z,98262.94
2022-09-28T10:57:45.788Z,98251.94
2022-09-28T11:00:12.184Z,98255.22
2022-09-28T11:02:38.520Z,98264.81
2022-09-28T11:05:04.821Z,98272.00
2022-09-28T11:07:31.812Z,98266.50
2022-09-28T11:09:58.877Z,98260.38
2022-09-28T11:12:26.040Z,98263.63
2022-09-28T11:14:52.793Z,98267.75
2022-09-28T11:17:19.081Z,98257.91
2022-09-28T11:19:45.432Z,98268.66
2022-09-28T11:22:13.797Z,98281.38
2022-09-28T11:24:40.323Z,98292.06
2022-09-28T11:27:06.575Z,98285.25
2022-09-28T11:29:33.237Z,98281.69
2022-09-28T11:31:59.548Z,98273.75
2022-09-28T11:34:41.825Z,98267.31
2022-09-28T11:37:15.886Z,98268.38
2022-09-28T11:39:42.138Z,98283.16
2022-09-28T11:42:10.957Z,98284.75
2022-09-28T11:44:39.272Z,98280.03
2022-09-28T11:47:05.567Z,98283.88
2022-09-28T11:49:31.851Z,98275.63
2022-09-28T11:51:58.142Z,98288.38
2022-09-28T11:54:26.064Z,98273.31
2022-09-28T11:56:52.321Z,98275.16
2022-09-28T11:59:18.575Z,98279.88
2022-09-28T12:01:44.867Z,98282.19
2022-09-28T12:04:11.185Z,98287.94
2022-09-28T12:06:37.514Z,98292.78
2022-09-28T12:09:03.767Z,98290.13
2022-09-28T12:11:30.326Z,98287.41
2022-09-28T12:13:57.384Z,98286.41
2022-09-28T12:16:45.658Z,98295.00
2022-09-28T12:19:09.857Z,98300.19
2022-09-28T12:21:36.118Z,98299.03
2022-09-28T12:24:02.384Z,98296.66
2022-09-28T12:26:29.112Z,98298.34
2022-09-28T12:28:56.786Z,98303.31
2022-09-28T12:31:23.121Z,98306.13
2022-09-28T12:33:49.424Z,98309.97
2022-09-28T12:36:16.009Z,98320.31
2022-09-28T12:38:42.284Z,98316.84
2022-09-28T12:41:10.617Z,98323.31
2022-09-28T12:43:36.867Z,98319.25
2022-09-28T12:46:18.253Z,98317.66
2022-09-28T12:48:45.942Z,98324.03
2022-09-28T12:51:16.590Z,98326.34
2022-09-28T12:53:42.830Z,98329.44
2022-09-28T12:56:09.138Z,98321.16
2022-09-28T12:58:36.602Z,98332.56
2022-09-28T13:01:02.858Z,98339.94
2022-09-28T13:03:31.055Z,98342.03
2022-09-28T13:05:57.333Z,98347.38
2022-09-28T13:08:23.590Z,98345.31
2022-09-28T13:10:50.168Z,98350.50
2022-09-28T13:13:16.426Z,98348.91
2022-09-28T13:15:42.737Z,98360.94
2022-09-28T13:18:09.019Z,98360.28
2022-09-28T13:20:35.679Z,98364.63
2022-09-28T13:23:02.268Z,98363.47
2022-09-28T13:25:28.528Z,98372.50
2022-09-28T13:27:54.805Z,98376.34
2022-09-28T13:30:21.053Z,98367.34
2022-09-28T13:32:47.542Z,98372.84
2022-09-28T13:35:13.939Z,98374.47
2022-09-28T13:37:40.690Z,98377.38
2022-09-28T13:40:07.263Z,98376.34
2022-09-28T13:42:33.518Z,98382.22
2022-09-28T13:45:00.133Z,98379.03
2022-09-28T13:47:26.452Z,98391.59
2022-09-28T13:49:52.699Z,98394.94
2022-09-28T13:52:18.961Z,98392.84
2022-09-28T13:54:45.251Z,98404.66
2022-09-28T13:57:11.490Z,98404.41
2022-09-28T13:59:37.751Z,98398.16
2022-09-28T14:02:06.938Z,98414.47
2022-09-28T14:04:33.626Z,98412.44
2022-09-28T14:06:59.894Z,98420.38
2022-09-28T14:09:26.163Z,98410.38
2022-09-28T14:11:52.428Z,98411.16
2022-09-28T14:14:18.697Z,98421.47
2022-09-28T14:16:44.964Z,98435.63
2022-09-28T14:19:11.280Z,98427.28
2022-09-28T14:21:37.828Z,98438.63
2022-09-28T14:24:04.080Z,98436.91
2022-09-28T14:26:30.395Z,98441.66
2022-09-28T14:28:56.640Z,98451.06
2022-09-28T14:31:22.941Z,98454.13
2022-09-28T14:33:49.286Z,98453.28
2022-09-28T14:36:35.547Z,98457.84
2022-09-28T14:39:20.432Z,98461.72
2022-09-28T14:41:46.741Z,98462.22
2022-09-28T14:44:13.000Z,98468.38
2022-09-28T14:46:40.323Z,98465.56
2022-09-28T14:49:06.635Z,98468.50
2022-09-28T14:51:34.876Z,98465.75
2022-09-28T14:54:01.138Z,98465.38
2022-09-28T14:56:32.493Z,98460.38
2022-09-28T14:58:59.112Z,98465.34
2022-09-28T15:01:25.432Z,98461.66
2022-09-28T15:03:52.203Z,98460.16
2022-09-28T15:06:19.995Z,98468.63
2022-09-28T15:08:46.251Z,98466.09
2022-09-28T15:11:12.511Z,98469.88
2022-09-28T15:13:40.619Z,98469.78
2022-09-28T15:16:06.833Z,98466.41
2022-09-28T15:18:33.207Z,98466.91
2022-09-28T15:20:59.463Z,98474.50
2022-09-28T15:23:25.982Z,98475.03
2022-09-28T15:25:52.244Z,98485.66
2022-09-28T15:28:18.497Z,98485.22
2022-09-28T15:30:45.661Z,98487.44
2022-09-28T15:33:30.759Z,98492.06
2022-09-28T15:35:57.012Z,98490.13
2022-09-28T15:38:23.273Z,98489.50
2022-09-28T15:40:49.584Z,98494.94
2022-09-28T15:43:15.908Z,98495.88
2022-09-28T15:45:44.048Z,98503.28
2022-09-28T15:48:11.575Z,98498.69
2022-09-28T15:50:38.176Z,98515.88
2022-09-28T15:53:04.424Z,98508.94
2022-09-28T15:55:30.673Z,98513.75
2022-09-28T15:57:56.924Z,98518.31
2022-09-28T16:00:23.232Z,98521.91
2022-09-28T16:02:49.587Z,98521.59
2022-09-28T16:05:15.887Z,98534.22
2022-09-28T16:07:42.126Z,98532.31
2022-09-28T16:10:08.366Z,98531.72
2022-09-28T16:12:34.712Z,98532.78
2022-09-28T16:15:01.017Z,98542.31
2022-09-28T16:17:31.335Z,98543.41
2022-09-28T16:19:57.591Z,98548.53
2022-09-28T16:22:28.117Z,98551.69
2022-09-28T16:24:55.640Z,98552.38
2022-09-28T16:27:21.892Z,98566.06
2022-09-28T16:29:48.138Z,98570.50
2022-09-28T16:32:14.749Z,98566.00
2022-09-28T16:34:41.011Z,98574.56
2022-09-28T16:37:07.264Z,98569.66
2022-09-28T16:39:33.520Z,98576.75
2022-09-28T16:41:59.804Z,98570.47
2022-09-28T16:44:26.107Z,98575.88
2022-09-28T16:46:53.815Z,98581.94
2022-09-28T16:49:20.206Z,98583.94
2022-09-28T16:51:46.792Z,98589.31
2022-09-28T16:54:31.824Z,98581.03
2022-09-28T16:56:58.178Z,98588.09
2022-09-28T16:59:24.523Z,98587.88
2022-09-28T17:01:50.865Z,98589.16
2022-09-28T17:04:17.191Z,98588.19
2022-09-28T17:06:43.485Z,98588.66
2022-09-28T17:09:09.753Z,98588.00
2022-09-28T17:11:36.019Z,98592.00
2022-09-28T17:14:03.790Z,98595.22
2022-09-28T17:19:17.786Z,98601.44
2022-09-28T17:21:44.313Z,98606.81
2022-09-28T17:24:10.563Z,98609.66
2022-09-28T17:26:36.802Z,98606.09
2022-09-28T17:29:03.076Z,98612.16
2022-09-28T17:31:29.340Z,98609.34
2022-09-28T17:33:55.625Z,98618.69
2022-09-28T17:36:21.876Z,98618.41
2022-09-28T17:38:48.199Z,98620.91
2022-09-28T17:41:19.390Z,98622.75
2022-09-28T17:43:46.606Z,98632.09
2022-09-28T17:46:12.918Z,98622.44
2022-09-28T17:48:39.207Z,98626.69
2022-09-28T17:51:05.588Z,98625.81
2022-09-28T17:53:31.852Z,98635.72
2022-09-28T17:55:58.103Z,98628.44
2022-09-28T17:58:24.391Z,98632.41
2022-09-28T18:00:50.643Z,98636.72
2022-09-28T18:03:16.911Z,98635.88
2022-09-28T18:05:43.164Z,98641.00
2022-09-28T18:08:09.452Z,98643.44
2022-09-28T18:10:35.706Z,98647.53
2022-09-28T18:13:01.957Z,98645.44
2022-09-28T18:15:28.265Z,98644.91
2022-09-28T18:17:57.700Z,98650.47
2022-09-28T18:20:23.958Z,98647.22
2022-09-28T18:22:50.299Z,98647.84
2022-09-28T18:25:16.599Z,98647.59
2022-09-28T18:27:43.123Z,98651.69
2022-09-28T18:30:09.403Z,98650.34
2022-09-28T18:32:36.816Z,98655.69
2022-09-28T18:35:03.070Z,98657.56
2022-09-28T18:37:29.314Z,98655.41
2022-09-28T18:39:55.578Z,98647.81
2022-09-28T18:42:21.830Z,98657.44
2022-09-28T18:44:48.087Z,98654.34
2022-09-28T18:47:15.013Z,98660.25
2022-09-28T18:49:45.909Z,98662.94
2022-09-28T18:52:12.896Z,98670.25
2022-09-28T18:54:40.190Z,98673.63
2022-09-28T18:57:06.443Z,98680.84
2022-09-28T18:59:32.792Z,98674.63
2022-09-28T19:02:01.245Z,98672.13
2022-09-28T19:04:27.538Z,98670.97
2022-09-28T19:06:54.340Z,98669.00
2022-09-28T19:09:20.779Z,98671.81
2022-09-28T19:11:47.060Z,98674.22
2022-09-28T19:14:15.152Z,98679.88
2022-09-28T19:16:41.335Z,98676.75
2022-09-28T19:19:07.609Z,98676.63
2022-09-28T19:21:33.925Z,98670.41
2022-09-28T19:24:00.243Z,98677.31
2022-09-28T19:26:27.254Z,98684.09
2022-09-28T19:28:53.499Z,98681.25
2022-09-28T19:31:19.752Z,98678.59
2022-09-28T19:33:46.427Z,98686.72
2022-09-28T19:36:13.172Z,98681.25
2022-09-28T19:38:39.409Z,98680.25
2022-09-28T19:41:05.680Z,98692.94
2022-09-28T19:43:31.975Z,98678.41
2022-09-28T19:45:58.278Z,98678.72
2022-09-28T19:48:26.148Z,98682.03
2022-09-28T19:50:53.104Z,98677.56
2022-09-28T19:53:19.379Z,98683.88
2022-09-28T19:55:45.630Z,98682.03
2022-09-28T19:58:12.108Z,98690.03
2022-09-28T20:00:38.365Z,98676.38
2022-09-28T20:03:04.752Z,98685.50
2022-09-28T20:05:31.100Z,98691.81
2022-09-28T20:07:57.402Z,98694.47
2022-09-28T20:10:23.675Z,98701.69
2022-09-28T20:12:49.916Z,98706.16
2022-09-28T20:15:16.501Z,98707.50
2022-09-28T20:17:42.756Z,98704.88
2022-09-28T20:20:09.044Z,98709.53
2022-09-28T20:22:35.307Z,98719.50
2022-09-28T20:25:02.671Z,98722.59
2022-09-28T20:27:28.932Z,98725.50
2022-09-28T20:29:55.212Z,98723.00
2022-09-28T20:32:21.467Z,98729.03
2022-09-28T20:34:47.727Z,98733.41
2022-09-28T20:37:17.117Z,98727.34
2022-09-28T20:39:45.112Z,98742.75
2022-09-28T20:42:11.560Z,98746.13
2022-09-28T20:44:37.810Z,98738.50
2022-09-28T20:47:04.062Z,98744.97
2022-09-28T20:49:31.646Z,98743.81
2022-09-28T20:51:57.922Z,98752.00
2022-09-28T20:54:24.564Z,98759.53
2022-09-28T20:56:50.843Z,98756.41
2022-09-28T20:59:17.108Z,98761.81
2022-09-28T21:01:43.344Z,98759.31
2022-09-28T21:04:09.645Z,98763.75
2022-09-28T21:06:35.896Z,98770.88
2022-09-28T21:09:02.091Z,98774.53
2022-09-28T21:11:28.281Z,98777.50
2022-09-28T21:13:54.539Z,98775.31
2022-09-28T21:16:20.728Z,98781.00
2022-09-28T21:18:46.934Z,98780.00
2022-09-28T21:21:13.116Z,98780.00
2022-09-28T21:23:39.430Z,98777.50
2022-09-28T21:26:05.732Z,98780.94
2022-09-28T21:28:32.076Z,98784.31
2022-09-28T21:30:58.421Z,98781.03
2022-09-28T21:33:24.643Z,98789.06
2022-09-28T21:35:50.900Z,98793.41
2022-09-28T21:38:17.078Z,98798.72
2022-09-28T21:40:43.950Z,98798.31
2022-09-28T21:43:10.328Z,98805.38
2022-09-28T21:45:38.260Z,98797.22
2022-09-28T21:48:04.584Z,98807.81
2022-09-28T21:50:30.875Z,98793.88
2022-09-28T21:52:57.081Z,98797.06
2022-09-28T21:55:23.262Z,98805.44
2022-09-28T21:57:50.679Z,98798.13
2022-09-28T22:00:23.210Z,98800.09
2022-09-28T22:02:49.485Z,98797.28
2022-09-28T22:05:15.756Z,98797.66
2022-09-28T22:07:42.267Z,98800.56
2022-09-28T22:10:08.450Z,98796.25
2022-09-28T22:12:34.665Z,98802.41
2022-09-28T22:15:00.851Z,98799.38
2022-09-28T22:17:27.140Z,98806.03
2022-09-28T22:19:53.355Z,98810.88
2022-09-28T22:22:19.534Z,98809.06
2022-09-28T22:24:45.720Z,98808.22
2022-09-28T22:27:11.894Z,98810.25
2022-09-28T22:29:38.084Z,98807.00
2022-09-28T22:32:04.279Z,98823.00
2022-09-28T22:34:31.655Z,98819.38
2022-09-28T22:36:57.927Z,98814.03
2022-09-28T22:39:24.151Z,98811.25
2022-09-28T22:41:50.342Z,98808.94
2022-09-28T22:44:16.623Z,98812.97
2022-09-28T22:46:42.929Z,98816.00
2022-09-28T22:49:09.390Z,98827.72
2022-09-28T22:51:35.562Z,98822.75
2022-09-28T22:54:01.815Z,98830.16
2022-09-28T22:56:27.992Z,98823.50
2022-09-28T22:58:54.184Z,98833.69
2022-09-28T23:01:20.910Z,98829.81
2022-09-28T23:03:47.195Z,98832.59
2022-09-28T23:06:13.431Z,98828.81
2022-09-28T23:08:39.632Z,98834.53
2022-09-28T23:11:05.829Z,98827.03
2022-09-28T23:13:32.359Z,98832.84
2022-09-28T23:15:58.637Z,98839.97
2022-09-28T23:18:24.856Z,98844.09
2022-09-28T23:20:51.052Z,98840.44
2022-09-28T23:23:17.473Z,98841.31
2022-09-28T23:25:43.663Z,98833.94
2022-09-28T23:28:09.848Z,98837.78
2022-09-28T23:30:36.054Z,98836.94
2022-09-28T23:33:02.235Z,98837.91
2022-09-28T23:35:28.568Z,98840.06
2022-09-28T23:37:54.751Z,98843.09
2022-09-28T23:40:20.988Z,98846.72
2022-09-28T23:42:47.175Z,98844.22
2022-09-28T23:45:13.642Z,98845.91
2022-09-28T23:47:39.842Z,98852.81
2022-09-28T23:50:06.034Z,98844.81
2022-09-28T23:52:32.215Z,98845.06
2022-09-28T23:54:58.528Z,98863.81
2022-09-28T23:57:25.293Z,98848.44
2022-09-28T23:59:51.486Z,98858.00
